Aeroporto :
LOGIN :

Iscrizione | Disclaimer

   EN    FR    IT 

 










Sommario :    VFR   VFR Marginale   IFR   IFR Intensivo   IFR Molto Intensivo
Visibilità : 
Base nubi : 
>= 8 km
>= 3000ft
5 / 8 km
1000 / 3000 ft
1500m / 5 km
500 / 1000 ft
800 / 1500m
200 / 500 ft
< 800m
< 200 ft
Simboli :   Temporali  Nebbia  Neve Forte  Precipitazioni Forti  Vento > 20 kt
SIGMETs :   Varie  Temporali  Ghiacco  Turbolenza  Onda orograficha  Ceneri Vulcaniche






- Altitudine del aeroporto : 17 ft
- Codice IATA : KLR


ESMQ - Kalmar

ULTIMO METAR :
  • 032020Z AUTO 24005KT 9999 NCD M01/M02 Q1009

METARs OBSOLETI :
  • 031950Z AUTO 24003KT 9999 FEW069/// M01/M02 Q1008
  • 031920Z AUTO VRB02KT 9999 FEW062/// M01/M02 Q1008
  • 031850Z AUTO VRB02KT 9999 FEW067/// SCT081/// 00/M01 Q1007
  • 031820Z AUTO 20005KT 9999 NCD 01/M00 Q1007
  • 031750Z AUTO 19004KT 9999 NCD 00/M01 Q1006

Previsioni scadute.



MetMap, La meteo Aeronautica in un colpo d'occhio ! - Copyright ORBIFLY Dicembre 2007 - Disclaimer

ORBIFLY MET'MAP TEAM :

Programmazione e sviluppo : Alexandra Zaïnal
Concezione : Baudouin d'Aumeries
Aiuto per la programmazione : Marc-Olivier Méhu
Supporto tecnico e logistico : Manuel Goepfert
Aiuto per la traduzione : Arnaldo La Scala

Contatto : metmap@orbifly.com




FONTI E CREDITI :

   NOAA